createdAt,value
2022-12-25T00:02:20.831Z,55.13
2022-12-25T00:04:47.505Z,47.28
2022-12-25T00:07:14.279Z,61.95
2022-12-25T00:09:40.906Z,54.45
2022-12-25T00:12:07.710Z,46.42
2022-12-25T00:14:34.535Z,46.85
2022-12-25T00:17:01.380Z,51.90
2022-12-25T00:19:28.030Z,44.50
2022-12-25T00:21:54.728Z,51.83
2022-12-25T00:24:21.343Z,53.17
2022-12-25T00:26:48.074Z,57.60
2022-12-25T00:29:14.907Z,55.25
2022-12-25T00:31:41.593Z,47.95
2022-12-25T00:34:08.277Z,54.50
2022-12-25T00:36:41.170Z,50.60
2022-12-25T00:39:08.450Z,51.88
2022-12-25T00:41:53.648Z,50.75
2022-12-25T00:44:20.682Z,61.05
2022-12-25T00:46:47.460Z,51.63
2022-12-25T00:49:14.254Z,46.78
2022-12-25T00:51:41.019Z,55.15
2022-12-25T00:54:08.638Z,47.47
2022-12-25T00:56:35.697Z,57.88
2022-12-25T00:59:02.425Z,50.72
2022-12-25T01:01:29.423Z,47.72
2022-12-25T01:03:56.264Z,42.75
2022-12-25T01:06:23.056Z,51.60
2022-12-25T01:09:09.370Z,52.45
2022-12-25T01:11:36.420Z,48.83
2022-12-25T01:14:03.182Z,48.30
2022-12-25T01:16:30.546Z,52.88
2022-12-25T01:18:57.357Z,48.80
2022-12-25T01:21:24.596Z,57.78
2022-12-25T01:23:52.639Z,40.13
2022-12-25T01:26:23.199Z,53.00
2022-12-25T01:28:51.121Z,64.38
2022-12-25T01:31:21.080Z,58.92
2022-12-25T01:33:48.752Z,51.00
2022-12-25T01:36:24.179Z,59.83
2022-12-25T01:38:52.486Z,56.80
2022-12-25T01:41:22.015Z,68.88
2022-12-25T01:44:05.794Z,52.25
2022-12-25T01:46:32.974Z,61.40
2022-12-25T01:49:04.963Z,59.10
2022-12-25T01:51:35.862Z,74.15
2022-12-25T01:54:07.226Z,54.85
2022-12-25T01:56:36.448Z,56.30
2022-12-25T01:59:06.425Z,57.55
2022-12-25T02:01:33.407Z,57.35
2022-12-25T02:04:09.322Z,42.90
2022-12-25T02:06:36.012Z,54.05
2022-12-25T02:09:03.124Z,54.33
2022-12-25T02:11:48.387Z,42.22
2022-12-25T02:14:15.078Z,56.53
2022-12-25T02:16:57.475Z,62.60
2022-12-25T02:20:02.980Z,50.80
2022-12-25T02:22:56.517Z,52.90
2022-12-25T02:25:56.818Z,42.83
2022-12-25T02:28:30.586Z,44.58
2022-12-25T02:31:03.576Z,44.67
2022-12-25T02:34:03.738Z,48.20
2022-12-25T02:36:51.158Z,39.28
2022-12-25T02:39:58.276Z,49.45
2022-12-25T02:42:55.225Z,39.30
2022-12-25T02:45:50.614Z,49.55
2022-12-25T02:48:39.877Z,43.40
2022-12-25T02:51:29.052Z,42.70
2022-12-25T02:54:17.357Z,38.88
2022-12-25T02:57:06.444Z,42.28
2022-12-25T02:59:56.510Z,44.78
2022-12-25T03:02:43.704Z,43.63
2022-12-25T03:05:33.868Z,44.55
2022-12-25T03:08:06.192Z,40.65
2022-12-25T03:10:54.074Z,41.50
2022-12-25T03:13:24.490Z,36.60
2022-12-25T03:16:10.158Z,36.85
2022-12-25T03:18:36.853Z,43.58
2022-12-25T03:21:21.982Z,39.90
2022-12-25T03:24:22.238Z,34.53
2022-12-25T03:26:55.185Z,34.63
2022-12-25T03:29:52.100Z,39.97
2022-12-25T03:32:38.282Z,34.05
2022-12-25T03:35:31.657Z,34.00
2022-12-25T03:38:19.718Z,38.83
2022-12-25T03:41:31.571Z,38.75
2022-12-25T03:44:22.346Z,37.17
2022-12-25T03:47:17.952Z,43.13
2022-12-25T03:50:08.512Z,41.92
2022-12-25T03:52:56.593Z,42.95
2022-12-25T03:55:43.865Z,40.28
2022-12-25T03:58:39.749Z,33.30
2022-12-25T04:01:25.109Z,49.05
2022-12-25T04:04:10.566Z,42.67
2022-12-25T04:06:55.985Z,39.67
2022-12-25T04:09:41.481Z,37.30
2022-12-25T04:12:26.720Z,43.13
2022-12-25T04:15:11.916Z,44.60
2022-12-25T04:17:57.596Z,39.92
2022-12-25T04:20:43.183Z,42.28
2022-12-25T04:23:28.726Z,42.90
2022-12-25T04:26:16.926Z,43.38
2022-12-25T04:29:02.434Z,40.90
2022-12-25T04:31:47.807Z,42.42
2022-12-25T04:34:33.283Z,39.90
2022-12-25T04:36:59.970Z,47.28
2022-12-25T04:39:26.952Z,45.67
2022-12-25T04:41:53.627Z,42.22
2022-12-25T04:44:20.297Z,44.95
2022-12-25T04:46:47.003Z,39.92
2022-12-25T04:49:13.726Z,44.45
2022-12-25T04:51:40.460Z,38.88
2022-12-25T04:54:07.152Z,47.92
2022-12-25T04:56:34.472Z,40.72
2022-12-25T04:59:03.365Z,46.17
2022-12-25T05:01:30.153Z,47.10
2022-12-25T05:03:57.005Z,41.35
2022-12-25T05:06:23.678Z,51.30
2022-12-25T05:08:50.431Z,38.58
2022-12-25T05:11:17.359Z,39.60
2022-12-25T05:13:44.618Z,39.67
2022-12-25T05:16:20.022Z,49.20
2022-12-25T05:18:50.842Z,48.47
2022-12-25T05:21:17.948Z,48.13
2022-12-25T05:23:50.796Z,44.95
2022-12-25T05:26:20.169Z,42.53
2022-12-25T05:28:47.005Z,47.47
2022-12-25T05:31:13.939Z,43.80
2022-12-25T05:33:41.032Z,48.30
2022-12-25T05:36:10.352Z,51.40
2022-12-25T05:38:37.561Z,45.35
2022-12-25T05:41:04.404Z,57.30
2022-12-25T05:43:31.242Z,57.45
2022-12-25T05:45:58.013Z,39.40
2022-12-25T05:48:24.678Z,53.58
2022-12-25T05:50:51.358Z,48.47
2022-12-25T05:53:18.055Z,55.78
2022-12-25T05:55:44.830Z,51.60
2022-12-25T05:58:12.717Z,52.25
2022-12-25T06:00:40.693Z,59.88
2022-12-25T06:03:07.467Z,47.00
2022-12-25T06:05:34.385Z,57.42
2022-12-25T06:08:01.118Z,50.72
2022-12-25T06:10:27.795Z,52.55
2022-12-25T06:12:54.924Z,63.28
2022-12-25T06:15:21.753Z,62.40
2022-12-25T06:17:48.477Z,58.33
2022-12-25T06:20:15.258Z,53.35
2022-12-25T06:22:41.897Z,61.67
2022-12-25T06:25:09.296Z,62.83
2022-12-25T06:27:35.997Z,52.67
2022-12-25T06:30:03.114Z,52.85
2022-12-25T06:32:29.880Z,46.55
2022-12-25T06:34:56.520Z,39.33
2022-12-25T06:37:23.252Z,54.50
2022-12-25T06:39:50.069Z,54.67
2022-12-25T06:42:16.726Z,52.75
2022-12-25T06:44:43.453Z,55.65
2022-12-25T06:47:10.342Z,52.47
2022-12-25T06:49:37.017Z,47.25
2022-12-25T06:52:03.690Z,43.10
2022-12-25T06:54:30.389Z,53.80
2022-12-25T06:56:57.087Z,47.88
2022-12-25T06:59:23.850Z,50.28
2022-12-25T07:01:53.709Z,47.30
2022-12-25T07:04:32.114Z,55.92
2022-12-25T07:07:08.412Z,50.47
2022-12-25T07:09:36.445Z,47.17
2022-12-25T07:12:13.795Z,44.85
2022-12-25T07:14:40.582Z,43.28
2022-12-25T07:17:07.428Z,40.65
2022-12-25T07:19:35.339Z,39.95
2022-12-25T07:22:05.054Z,44.20
2022-12-25T07:24:31.745Z,44.03
2022-12-25T07:26:58.388Z,38.63
2022-12-25T07:29:25.104Z,39.00
2022-12-25T07:31:51.801Z,48.13
2022-12-25T07:34:18.780Z,40.20
2022-12-25T07:36:46.067Z,38.97
2022-12-25T07:39:13.183Z,40.92
2022-12-25T07:41:40.322Z,42.28
2022-12-25T07:44:07.058Z,46.55
2022-12-25T07:46:33.783Z,34.00
2022-12-25T07:49:01.003Z,42.35
2022-12-25T07:51:30.174Z,45.33
2022-12-25T07:53:57.408Z,43.20
2022-12-25T07:56:24.405Z,36.47
2022-12-25T07:58:51.114Z,33.72
2022-12-25T08:01:21.430Z,37.10
2022-12-25T08:03:55.953Z,35.75
2022-12-25T08:06:25.028Z,38.95
2022-12-25T08:08:51.754Z,33.95
2022-12-25T08:11:18.470Z,37.60
2022-12-25T08:13:45.115Z,36.08
2022-12-25T08:16:12.019Z,38.85
2022-12-25T08:18:39.514Z,35.95
2022-12-25T08:21:12.302Z,32.63
2022-12-25T08:23:41.857Z,33.15
2022-12-25T08:26:13.403Z,36.28
2022-12-25T08:28:40.209Z,31.17
2022-12-25T08:31:14.682Z,30.23
2022-12-25T08:33:41.877Z,33.58
2022-12-25T08:36:11.155Z,31.95
2022-12-25T08:38:38.923Z,26.73
2022-12-25T08:41:06.227Z,26.83
2022-12-25T08:43:32.946Z,26.98
2022-12-25T08:45:59.894Z,26.27
2022-12-25T08:48:27.836Z,25.58
2022-12-25T08:50:54.780Z,29.52
2022-12-25T08:53:22.131Z,25.58
2022-12-25T08:55:48.851Z,25.73
2022-12-25T08:58:16.604Z,23.98
2022-12-25T09:00:43.625Z,26.90
2022-12-25T09:03:10.500Z,25.98
2022-12-25T09:05:37.964Z,22.05
2022-12-25T09:08:04.922Z,27.73
2022-12-25T09:10:35.030Z,23.92
2022-12-25T09:13:02.775Z,26.25
2022-12-25T09:15:29.772Z,22.85
2022-12-25T09:17:56.604Z,29.13
2022-12-25T09:20:23.353Z,26.02
2022-12-25T09:22:50.269Z,25.13
2022-12-25T09:25:17.319Z,28.27
2022-12-25T09:27:44.082Z,21.95
2022-12-25T09:30:11.473Z,23.88
2022-12-25T09:32:40.378Z,25.42
2022-12-25T09:35:08.479Z,22.35
2022-12-25T09:37:35.399Z,23.63
2022-12-25T09:40:02.267Z,25.88
2022-12-25T09:42:31.492Z,21.40
2022-12-25T09:45:03.149Z,25.67
2022-12-25T09:47:33.811Z,22.10
2022-12-25T09:50:12.167Z,22.05
2022-12-25T09:52:41.559Z,24.60
2022-12-25T09:55:14.731Z,24.52
2022-12-25T09:57:45.742Z,22.25
2022-12-25T10:00:18.247Z,23.08
2022-12-25T10:02:57.357Z,21.95
2022-12-25T10:05:47.856Z,21.65
2022-12-25T10:08:35.833Z,21.02
2022-12-25T10:11:27.405Z,23.00
2022-12-25T10:14:15.261Z,21.30
2022-12-25T10:17:17.963Z,25.73
2022-12-25T10:20:03.391Z,21.20
2022-12-25T10:23:00.657Z,22.83
2022-12-25T10:25:27.537Z,20.17
2022-12-25T10:28:04.548Z,21.35
2022-12-25T10:30:32.394Z,21.38
2022-12-25T10:32:59.289Z,21.88
2022-12-25T10:35:28.923Z,19.45
2022-12-25T10:37:59.016Z,20.42
2022-12-25T10:40:28.906Z,19.50
2022-12-25T10:43:04.447Z,21.70
2022-12-25T10:45:31.074Z,20.52
2022-12-25T10:48:07.734Z,23.45
2022-12-25T10:50:34.867Z,20.52
2022-12-25T10:53:05.605Z,21.27
2022-12-25T10:55:33.274Z,21.00
2022-12-25T10:58:02.022Z,20.00
2022-12-25T11:00:31.098Z,20.88
2022-12-25T11:02:58.450Z,21.08
2022-12-25T11:05:35.988Z,20.42
2022-12-25T11:08:03.705Z,19.17
2022-12-25T11:10:44.472Z,18.92
2022-12-25T11:13:24.582Z,18.90
2022-12-25T11:16:25.337Z,19.13
2022-12-25T11:21:34.830Z,19.27
2022-12-25T11:24:20.055Z,18.95
2022-12-25T11:26:55.824Z,21.45
2022-12-25T11:29:40.923Z,21.70
2022-12-25T11:32:16.833Z,20.42
2022-12-25T11:34:46.644Z,18.80
2022-12-25T11:37:20.198Z,18.87
2022-12-25T11:39:47.154Z,20.10
2022-12-25T11:42:28.870Z,21.27
2022-12-25T11:44:55.502Z,21.00
2022-12-25T11:47:30.572Z,21.10
2022-12-25T11:50:27.028Z,18.58
2022-12-25T11:52:55.457Z,21.00
2022-12-25T11:55:39.042Z,19.95
2022-12-25T11:58:21.189Z,22.30
2022-12-25T12:00:51.156Z,22.05
2022-12-25T12:03:36.980Z,21.35
2022-12-25T12:06:33.112Z,17.85
2022-12-25T12:09:41.575Z,18.13
2022-12-25T12:12:26.422Z,20.17
2022-12-25T12:15:00.937Z,22.02
2022-12-25T12:17:27.646Z,21.75
2022-12-25T12:19:54.425Z,19.25
2022-12-25T12:22:26.815Z,19.80
2022-12-25T12:25:01.592Z,21.02
2022-12-25T12:27:40.465Z,19.05
2022-12-25T12:30:22.061Z,18.08
2022-12-25T12:32:52.914Z,18.80
2022-12-25T12:35:32.106Z,17.15
2022-12-25T12:38:02.853Z,20.55
2022-12-25T12:40:38.949Z,18.65
2022-12-25T12:43:23.716Z,18.92
2022-12-25T12:45:56.855Z,17.70
2022-12-25T12:48:28.400Z,21.42
2022-12-25T12:51:13.304Z,19.45
2022-12-25T12:53:42.793Z,19.33
2022-12-25T12:56:18.445Z,17.60
2022-12-25T12:58:50.936Z,18.60
2022-12-25T13:01:18.240Z,19.17
2022-12-25T13:04:00.562Z,21.25
2022-12-25T13:06:40.967Z,19.27
2022-12-25T13:09:22.823Z,20.05
2022-12-25T13:11:50.265Z,17.38
2022-12-25T13:14:21.041Z,21.40
2022-12-25T13:16:50.248Z,24.40
2022-12-25T13:19:24.338Z,22.05
2022-12-25T13:22:01.003Z,23.92
2022-12-25T13:24:30.467Z,22.98
2022-12-25T13:26:58.956Z,21.65
2022-12-25T13:29:31.442Z,20.27
2022-12-25T13:32:00.171Z,21.65
2022-12-25T20:32:23.953Z,132.57
2022-12-25T20:34:51.029Z,54.53
2022-12-25T20:37:17.770Z,74.57
2022-12-25T20:39:44.462Z,78.90
2022-12-25T20:42:11.406Z,93.25
2022-12-25T20:44:38.231Z,100.57
2022-12-25T20:47:05.176Z,124.13
2022-12-25T20:49:32.687Z,86.35
2022-12-25T20:52:04.896Z,62.35
2022-12-25T20:54:32.571Z,137.52
2022-12-25T20:56:59.367Z,109.25
2022-12-25T20:59:25.999Z,107.28
2022-12-25T21:01:55.591Z,132.02
2022-12-25T21:04:22.612Z,68.83
2022-12-25T21:06:49.309Z,48.55
2022-12-25T21:09:15.996Z,65.07
2022-12-25T21:11:42.864Z,77.57
2022-12-25T21:14:09.698Z,65.75
2022-12-25T21:16:36.587Z,109.88
2022-12-25T21:19:03.344Z,69.18
2022-12-25T21:21:29.972Z,64.07
2022-12-25T21:23:57.243Z,91.00
2022-12-25T21:26:29.308Z,52.45
2022-12-25T21:29:00.381Z,130.63
2022-12-25T21:31:28.300Z,59.10
2022-12-25T21:33:57.465Z,72.72
2022-12-25T21:36:28.941Z,54.83
2022-12-25T21:39:02.192Z,79.80
2022-12-25T21:41:30.686Z,131.73
2022-12-25T21:43:57.820Z,50.75
2022-12-25T21:46:25.168Z,101.72
2022-12-25T21:48:52.233Z,70.97
2022-12-25T21:51:43.854Z,51.97
2022-12-25T21:54:11.333Z,59.78
2022-12-25T21:56:44.440Z,60.78
2022-12-25T21:59:17.157Z,69.10
2022-12-25T22:01:44.650Z,61.33
2022-12-25T22:04:12.945Z,54.30
2022-12-25T22:06:58.487Z,43.65
2022-12-25T22:09:25.479Z,59.38
2022-12-25T22:12:10.788Z,130.35
2022-12-25T22:14:55.256Z,59.10
2022-12-25T22:17:44.311Z,82.30
2022-12-25T22:20:18.774Z,128.93
2022-12-25T22:22:45.603Z,205.32
2022-12-25T22:25:13.732Z,134.15
2022-12-25T22:27:42.290Z,116.60
2022-12-25T22:30:16.096Z,134.93
2022-12-25T22:32:43.081Z,89.75
2022-12-25T22:35:12.343Z,128.05
2022-12-25T22:37:40.724Z,128.77
2022-12-25T22:40:09.917Z,94.00
2022-12-25T22:42:37.126Z,164.38
2022-12-25T22:45:04.455Z,199.80
2022-12-25T22:47:31.375Z,139.60
2022-12-25T22:49:58.226Z,82.25
2022-12-25T22:52:24.991Z,62.53
2022-12-25T22:54:51.889Z,54.88
2022-12-25T22:57:18.589Z,46.83
2022-12-25T22:59:45.307Z,48.17
2022-12-25T23:02:12.199Z,52.30
2022-12-25T23:04:39.035Z,46.33
2022-12-25T23:07:05.973Z,46.30
2022-12-25T23:09:32.851Z,32.83
2022-12-25T23:11:59.898Z,44.03
2022-12-25T23:14:39.083Z,38.90
2022-12-25T23:17:31.054Z,38.58
2022-12-25T23:20:18.136Z,31.30
2022-12-25T23:23:04.671Z,31.15
2022-12-25T23:25:50.400Z,32.25
2022-12-25T23:28:40.177Z,37.58
2022-12-25T23:31:07.415Z,34.73
2022-12-25T23:33:34.214Z,35.78
2022-12-25T23:36:01.160Z,31.55
2022-12-25T23:38:28.023Z,31.13
2022-12-25T23:40:54.748Z,43.97
2022-12-25T23:43:21.511Z,38.97
2022-12-25T23:45:48.238Z,62.95
2022-12-25T23:48:15.031Z,43.78
2022-12-25T23:50:41.752Z,59.13
2022-12-25T23:53:09.900Z,39.55
2022-12-25T23:55:36.718Z,43.50
2022-12-25T23:58:03.494Z,36.17
